createdAt,value
2022-11-19T00:00:10.661Z,9.76
2022-11-19T00:02:38.897Z,9.77
2022-11-19T00:05:07.725Z,9.65
2022-11-19T00:07:36.200Z,9.53
2022-11-19T00:10:07.289Z,9.57
2022-11-19T00:12:53.002Z,9.70
2022-11-19T00:15:21.616Z,9.62
2022-11-19T00:17:50.416Z,9.46
2022-11-19T00:20:18.984Z,9.53
2022-11-19T00:22:51.830Z,9.54
2022-11-19T00:25:22.406Z,9.39
2022-11-19T00:27:51.036Z,9.31
2022-11-19T00:30:46.203Z,9.40
2022-11-19T00:33:08.758Z,9.25
2022-11-19T00:35:37.055Z,9.26
2022-11-19T00:38:05.359Z,9.32
2022-11-19T00:40:35.021Z,9.17
2022-11-19T00:43:20.703Z,9.20
2022-11-19T00:45:50.308Z,9.15
2022-11-19T00:48:21.657Z,9.11
2022-11-19T00:50:49.985Z,9.09
2022-11-19T00:53:18.514Z,8.91
2022-11-19T00:55:48.238Z,8.98
2022-11-19T00:58:16.531Z,8.99
2022-11-19T01:00:45.030Z,9.00
2022-11-19T01:03:13.619Z,9.06
2022-11-19T01:05:42.011Z,8.97
2022-11-19T01:08:10.802Z,9.08
2022-11-19T01:10:39.244Z,8.94
2022-11-19T01:13:26.260Z,8.90
2022-11-19T01:15:54.933Z,8.73
2022-11-19T01:18:23.531Z,8.66
2022-11-19T01:20:51.810Z,8.61
2022-11-19T01:23:20.542Z,8.66
2022-11-19T01:25:48.896Z,8.72
2022-11-19T01:28:18.799Z,8.80
2022-11-19T01:30:47.250Z,8.79
2022-11-19T01:33:16.046Z,8.86
2022-11-19T01:35:44.462Z,8.84
2022-11-19T01:38:12.907Z,8.74
2022-11-19T01:40:45.522Z,8.82
2022-11-19T01:43:14.895Z,8.60
2022-11-19T01:45:48.220Z,8.73
2022-11-19T01:48:22.387Z,8.81
2022-11-19T01:50:57.763Z,8.77
2022-11-19T01:53:31.195Z,8.65
2022-11-19T01:56:04.145Z,8.58
2022-11-19T01:58:39.288Z,8.69
2022-11-19T02:01:11.213Z,8.55
2022-11-19T02:03:40.786Z,8.42
2022-11-19T02:06:09.726Z,8.51
2022-11-19T02:08:42.922Z,8.56
2022-11-19T02:11:58.434Z,8.50
2022-11-19T02:15:09.152Z,8.46
2022-11-19T02:17:58.816Z,8.24
2022-11-19T02:20:53.200Z,8.26
2022-11-19T02:24:33.182Z,8.23
2022-11-19T02:27:49.374Z,8.14
2022-11-19T02:30:20.136Z,8.14
2022-11-19T02:33:00.696Z,8.16
2022-11-19T02:35:46.127Z,8.02
2022-11-19T02:38:25.074Z,7.94
2022-11-19T02:41:00.342Z,7.83
2022-11-19T02:43:37.699Z,7.89
2022-11-19T02:46:13.103Z,7.87
2022-11-19T02:48:47.551Z,7.95
2022-11-19T02:51:17.527Z,7.71
2022-11-19T02:53:48.622Z,7.75
2022-11-19T02:56:49.792Z,7.66
2022-11-19T02:59:39.422Z,7.52
2022-11-19T03:02:29.239Z,7.58
2022-11-19T03:04:58.059Z,7.70
2022-11-19T03:07:26.589Z,7.68
2022-11-19T03:10:00.651Z,7.53
2022-11-19T03:12:40.582Z,7.63
2022-11-19T03:15:43.855Z,7.52
2022-11-19T03:18:19.436Z,7.66
2022-11-19T03:20:54.303Z,7.53
2022-11-19T03:23:28.147Z,7.61
2022-11-19T03:26:02.072Z,7.52
2022-11-19T03:28:37.100Z,7.51
2022-11-19T03:31:07.707Z,7.26
2022-11-19T03:33:42.711Z,7.41
2022-11-19T03:36:15.630Z,7.49
2022-11-19T03:38:48.032Z,7.50
2022-11-19T03:41:20.971Z,7.26
2022-11-19T03:43:56.478Z,7.28
2022-11-19T03:46:26.743Z,7.27
2022-11-19T03:49:00.484Z,7.29
2022-11-19T03:51:38.058Z,7.26
2022-11-19T03:54:07.569Z,7.25
2022-11-19T03:56:40.367Z,7.16
2022-11-19T03:59:12.828Z,7.11
2022-11-19T04:01:42.061Z,7.00
2022-11-19T04:04:28.980Z,6.97
2022-11-19T04:06:57.376Z,6.91
2022-11-19T04:09:25.674Z,7.00
2022-11-19T04:14:21.443Z,6.96
2022-11-19T04:16:50.168Z,7.00
2022-11-19T04:19:20.106Z,7.02
2022-11-19T04:21:48.940Z,6.98
2022-11-19T04:24:17.840Z,6.79
2022-11-19T04:26:46.085Z,7.04
2022-11-19T04:29:14.594Z,6.95
2022-11-19T04:31:43.206Z,6.77
2022-11-19T04:34:11.458Z,7.02
2022-11-19T04:36:42.288Z,7.01
2022-11-19T04:39:12.672Z,6.91
2022-11-19T04:41:41.714Z,6.94
2022-11-19T04:44:10.052Z,6.92
2022-11-19T04:46:38.420Z,6.94
2022-11-19T04:49:06.964Z,6.86
2022-11-19T04:51:35.242Z,6.86
2022-11-19T04:54:05.315Z,6.94
2022-11-19T04:56:33.603Z,6.86
2022-11-19T04:59:02.175Z,6.75
2022-11-19T05:01:30.674Z,6.67
2022-11-19T05:03:58.996Z,6.72
2022-11-19T05:06:27.349Z,6.58
2022-11-19T05:08:55.629Z,6.61
2022-11-19T05:11:25.338Z,6.73
2022-11-19T05:13:53.618Z,6.65
2022-11-19T05:16:21.885Z,6.67
2022-11-19T05:18:50.139Z,6.47
2022-11-19T05:21:18.444Z,6.53
2022-11-19T05:23:46.648Z,6.40
2022-11-19T05:26:14.915Z,6.36
2022-11-19T05:28:44.580Z,6.27
2022-11-19T05:31:12.970Z,6.35
2022-11-19T05:33:41.620Z,6.29
2022-11-19T05:36:10.564Z,6.25
2022-11-19T05:38:39.072Z,6.29
2022-11-19T05:41:07.787Z,6.26
2022-11-19T05:43:36.150Z,6.37
2022-11-19T05:46:06.006Z,6.35
2022-11-19T05:48:34.598Z,6.45
2022-11-19T05:51:03.110Z,6.36
2022-11-19T05:53:31.413Z,6.32
2022-11-19T05:55:59.628Z,6.13
2022-11-19T05:58:27.874Z,6.28
2022-11-19T06:00:56.644Z,6.18
2022-11-19T06:03:26.326Z,6.04
2022-11-19T06:05:54.660Z,6.12
2022-11-19T06:08:22.898Z,5.86
2022-11-19T06:10:51.373Z,6.00
2022-11-19T06:13:20.168Z,6.05
2022-11-19T06:15:48.722Z,6.08
2022-11-19T06:18:17.006Z,6.02
2022-11-19T06:20:46.807Z,5.95
2022-11-19T06:23:15.043Z,5.90
2022-11-19T06:25:43.301Z,5.89
2022-11-19T06:28:11.623Z,5.89
2022-11-19T06:30:40.125Z,5.87
2022-11-19T06:33:08.832Z,5.77
2022-11-19T06:35:37.102Z,5.88
2022-11-19T06:38:06.814Z,5.93
2022-11-19T06:40:35.096Z,5.91
2022-11-19T06:43:03.387Z,5.80
2022-11-19T06:45:31.812Z,5.64
2022-11-19T06:48:00.043Z,5.76
2022-11-19T06:50:28.317Z,5.79
2022-11-19T06:52:56.599Z,5.83
2022-11-19T06:55:27.499Z,5.87
2022-11-19T06:57:56.227Z,5.80
2022-11-19T07:00:24.924Z,5.86
2022-11-19T07:02:53.172Z,5.76
2022-11-19T07:05:21.591Z,5.83
2022-11-19T07:07:49.784Z,5.78
2022-11-19T07:10:18.431Z,5.76
2022-11-19T07:12:48.062Z,5.69
2022-11-19T07:15:17.034Z,5.77
2022-11-19T07:17:45.314Z,5.68
2022-11-19T07:20:14.525Z,5.72
2022-11-19T07:22:43.405Z,5.48
2022-11-19T07:25:13.488Z,5.66
2022-11-19T07:27:42.641Z,5.36
2022-11-19T07:30:13.788Z,5.62
2022-11-19T07:32:42.191Z,5.69
2022-11-19T07:35:11.920Z,5.48
2022-11-19T07:37:40.913Z,5.52
2022-11-19T07:40:11.517Z,5.62
2022-11-19T07:42:50.936Z,5.42
2022-11-19T07:45:23.342Z,5.37
2022-11-19T07:47:51.589Z,5.23
2022-11-19T07:50:20.683Z,5.41
2022-11-19T07:52:49.022Z,5.18
2022-11-19T07:55:17.612Z,5.37
2022-11-19T07:57:46.055Z,5.50
2022-11-19T08:00:16.155Z,5.36
2022-11-19T08:02:46.008Z,5.51
2022-11-19T08:05:14.666Z,5.58
2022-11-19T08:07:43.034Z,5.64
2022-11-19T08:10:12.722Z,5.40
2022-11-19T08:12:41.045Z,5.64
2022-11-19T08:15:11.067Z,5.76
2022-11-19T08:17:56.637Z,5.88
2022-11-19T08:20:26.381Z,5.83
2022-11-19T08:22:54.803Z,5.77
2022-11-19T08:25:23.056Z,5.76
2022-11-19T08:27:51.259Z,5.84
2022-11-19T08:30:19.836Z,5.81
2022-11-19T08:32:48.233Z,5.79
2022-11-19T08:35:16.664Z,5.79
2022-11-19T08:37:47.947Z,5.92
2022-11-19T08:40:17.139Z,5.96
2022-11-19T08:42:59.917Z,6.00
2022-11-19T08:45:31.336Z,6.08
2022-11-19T08:48:01.793Z,5.99
2022-11-19T08:50:31.820Z,6.13
2022-11-19T08:53:03.566Z,6.19
2022-11-19T08:55:33.767Z,6.10
2022-11-19T08:58:04.674Z,6.19
2022-11-19T09:00:35.805Z,6.24
2022-11-19T09:03:04.296Z,6.05
2022-11-19T09:05:35.419Z,6.18
2022-11-19T09:08:05.126Z,6.36
2022-11-19T09:10:33.745Z,6.23
2022-11-19T09:13:03.429Z,5.95
2022-11-19T09:15:32.025Z,6.06
2022-11-19T09:18:00.436Z,6.01
2022-11-19T09:20:28.682Z,6.25
2022-11-19T09:22:57.374Z,6.18
2022-11-19T09:25:27.205Z,6.22
2022-11-19T09:27:56.079Z,6.30
2022-11-19T09:30:24.515Z,6.42
2022-11-19T09:32:52.925Z,6.34
2022-11-19T09:35:21.274Z,6.58
2022-11-19T09:37:49.613Z,6.62
2022-11-19T09:40:21.725Z,6.53
2022-11-19T09:43:08.483Z,6.69
2022-11-19T09:45:54.860Z,6.60
2022-11-19T09:48:34.926Z,6.50
2022-11-19T09:51:11.245Z,6.49
2022-11-19T09:53:46.550Z,6.71
2022-11-19T09:56:27.140Z,6.64
2022-11-19T09:58:58.617Z,6.73
2022-11-19T10:01:30.447Z,6.78
2022-11-19T10:04:00.417Z,6.86
2022-11-19T10:06:33.248Z,6.60
2022-11-19T10:09:25.259Z,6.73
2022-11-19T10:12:12.386Z,6.68
2022-11-19T10:15:08.104Z,6.70
2022-11-19T10:17:53.008Z,6.89
2022-11-19T10:20:49.059Z,6.70
2022-11-19T10:23:20.046Z,6.80
2022-11-19T10:25:50.676Z,6.85
2022-11-19T10:28:23.254Z,7.07
2022-11-19T10:30:56.439Z,6.86
2022-11-19T10:33:31.954Z,7.03
2022-11-19T10:36:05.556Z,6.96
2022-11-19T10:38:38.890Z,7.06
2022-11-19T10:41:14.984Z,7.02
2022-11-19T10:43:48.733Z,6.85
2022-11-19T10:46:23.906Z,7.03
2022-11-19T10:48:56.019Z,7.06
2022-11-19T10:51:29.726Z,6.96
2022-11-19T10:53:58.981Z,6.75
2022-11-19T10:56:39.464Z,7.03
2022-11-19T10:59:13.936Z,6.88
2022-11-19T11:01:46.885Z,6.93
2022-11-19T11:04:20.080Z,6.87
2022-11-19T11:06:55.926Z,6.70
2022-11-19T11:09:35.509Z,6.68
2022-11-19T11:12:31.501Z,6.52
2022-11-19T11:15:09.035Z,6.61
2022-11-19T11:17:39.136Z,6.65
2022-11-19T11:20:21.443Z,6.65
2022-11-19T11:23:02.896Z,6.48
2022-11-19T11:25:31.470Z,6.68
2022-11-19T11:28:08.230Z,6.78
2022-11-19T11:30:36.622Z,6.81
2022-11-19T11:36:01.690Z,6.78
2022-11-19T11:38:31.266Z,6.68
2022-11-19T11:41:43.995Z,6.65
2022-11-19T11:44:04.403Z,6.64
2022-11-19T11:46:44.301Z,6.62
2022-11-19T11:49:31.808Z,6.58
2022-11-19T11:52:20.952Z,6.53
2022-11-19T11:55:01.066Z,6.49
2022-11-19T11:57:31.699Z,6.44
2022-11-19T12:00:00.964Z,6.76
2022-11-19T12:02:33.005Z,6.82
2022-11-19T12:05:05.133Z,6.75
2022-11-19T12:08:04.793Z,6.81
2022-11-19T12:10:45.125Z,6.83
2022-11-19T12:13:57.743Z,6.87
2022-11-19T12:16:42.330Z,6.89
2022-11-19T12:19:53.053Z,6.84
2022-11-19T12:22:35.973Z,6.75
2022-11-19T12:25:31.239Z,6.76
2022-11-19T12:28:25.919Z,6.66
2022-11-19T12:31:12.161Z,6.75
2022-11-19T12:34:05.775Z,6.58
2022-11-19T12:36:48.494Z,6.49
2022-11-19T12:39:37.416Z,6.64
2022-11-19T12:42:31.301Z,6.53
2022-11-19T12:45:12.179Z,6.72
2022-11-19T12:48:04.049Z,6.81
2022-11-19T12:50:43.603Z,6.71
2022-11-19T12:53:27.594Z,6.77
2022-11-19T12:56:08.478Z,6.89
2022-11-19T12:58:47.978Z,6.84
2022-11-19T13:01:22.210Z,6.90
2022-11-19T13:04:03.852Z,6.87
2022-11-19T13:06:40.441Z,6.72
2022-11-19T13:09:17.151Z,6.80
2022-11-19T13:11:55.459Z,6.78
2022-11-19T13:14:33.379Z,6.79
2022-11-19T13:17:03.114Z,6.82
2022-11-19T13:19:35.074Z,6.93
2022-11-19T13:22:08.464Z,6.90
2022-11-19T13:24:42.606Z,6.80
2022-11-19T13:27:20.196Z,7.05
2022-11-19T13:30:00.117Z,6.94
2022-11-19T13:32:38.526Z,6.97
2022-11-19T13:35:19.674Z,7.09
2022-11-19T13:38:01.159Z,7.14
2022-11-19T13:40:36.818Z,7.14
2022-11-19T13:43:34.700Z,7.07
2022-11-19T13:46:19.404Z,7.16
2022-11-19T13:48:57.657Z,7.16
2022-11-19T13:51:33.285Z,7.24
2022-11-19T13:54:04.342Z,7.18
2022-11-19T13:56:43.892Z,6.99
2022-11-19T13:59:30.250Z,7.03
2022-11-19T14:02:43.920Z,7.19
2022-11-19T14:05:59.757Z,7.14
2022-11-19T14:08:45.241Z,6.94
2022-11-19T14:11:43.158Z,7.06
2022-11-19T14:14:49.856Z,6.99
2022-11-19T14:17:48.386Z,7.02
2022-11-19T14:23:30.372Z,7.03
2022-11-19T14:26:16.528Z,6.96
2022-11-19T14:28:48.427Z,6.81
2022-11-19T14:31:17.634Z,6.92
2022-11-19T14:34:01.677Z,7.00
2022-11-19T14:36:48.854Z,7.05
2022-11-19T14:39:25.318Z,7.00
2022-11-19T14:42:15.842Z,7.00
2022-11-19T14:44:44.594Z,6.78
2022-11-19T14:47:38.436Z,6.89
2022-11-19T14:50:23.455Z,6.98
2022-11-19T14:52:55.128Z,6.89
2022-11-19T14:55:27.999Z,6.89
2022-11-19T14:58:02.444Z,6.73
2022-11-19T15:00:36.418Z,6.69
2022-11-19T15:03:08.590Z,6.82
2022-11-19T15:05:42.073Z,6.79
2022-11-19T15:08:47.004Z,6.71
2022-11-19T15:11:17.727Z,6.73
2022-11-19T15:13:47.480Z,6.71
2022-11-19T15:16:20.161Z,6.74
2022-11-19T15:19:24.281Z,6.78
2022-11-19T15:22:44.303Z,6.74
2022-11-19T15:25:30.635Z,6.66
2022-11-19T15:28:29.029Z,6.65
2022-11-19T15:31:23.826Z,6.54
2022-11-19T15:35:03.819Z,6.61
2022-11-19T15:37:47.035Z,6.53
2022-11-19T15:40:20.782Z,6.50
2022-11-19T15:42:58.123Z,6.56
2022-11-19T15:45:32.533Z,6.56
2022-11-19T15:48:13.869Z,6.37
2022-11-19T15:50:44.979Z,6.44
2022-11-19T15:53:20.443Z,6.36
2022-11-19T15:55:54.131Z,6.39
2022-11-19T15:58:28.507Z,6.42
2022-11-19T16:00:58.320Z,6.39
2022-11-19T16:03:26.702Z,6.42
2022-11-19T16:06:05.654Z,6.26
2022-11-19T16:08:34.668Z,6.37
2022-11-19T16:11:21.222Z,6.36
2022-11-19T16:14:12.198Z,6.29
2022-11-19T16:16:59.403Z,6.21
2022-11-19T16:19:27.667Z,6.24
2022-11-19T16:22:00.854Z,6.26
2022-11-19T16:24:48.437Z,6.38
2022-11-19T16:27:23.110Z,6.34
2022-11-19T16:29:52.708Z,6.23
2022-11-19T16:32:25.645Z,6.32
2022-11-19T16:34:53.985Z,6.27
2022-11-19T16:37:23.489Z,6.39
2022-11-19T16:39:54.148Z,6.37
2022-11-19T16:42:28.348Z,6.42
2022-11-19T16:45:06.197Z,6.32
2022-11-19T16:47:39.863Z,6.40
2022-11-19T16:50:26.964Z,6.31
2022-11-19T16:52:56.381Z,6.16
2022-11-19T16:55:52.569Z,6.39
2022-11-19T16:58:26.285Z,6.29
2022-11-19T17:00:59.565Z,6.46
2022-11-19T17:03:37.019Z,6.48
2022-11-19T17:06:09.036Z,6.50
2022-11-19T17:08:39.456Z,6.42
2022-11-19T17:11:41.001Z,6.46
2022-11-19T17:14:21.501Z,6.47
2022-11-19T17:16:52.445Z,6.49
2022-11-19T17:19:34.388Z,6.45
2022-11-19T17:22:05.984Z,6.36
2022-11-19T17:24:41.882Z,6.52
2022-11-19T17:27:23.903Z,6.52
2022-11-19T17:30:02.883Z,6.49
2022-11-19T17:32:40.067Z,6.47
2022-11-19T17:35:35.167Z,6.60
2022-11-19T17:38:11.460Z,6.55
2022-11-19T17:40:42.092Z,6.49
2022-11-19T17:43:29.531Z,6.43
2022-11-19T17:45:57.903Z,6.30
2022-11-19T17:48:28.288Z,6.37
2022-11-19T17:50:58.585Z,6.37
2022-11-19T17:53:26.894Z,6.38
2022-11-19T17:55:58.116Z,6.34
2022-11-19T17:58:26.353Z,6.35
2022-11-19T18:00:54.760Z,6.33
2022-11-19T18:03:23.203Z,6.32
2022-11-19T18:05:51.826Z,6.31
2022-11-19T18:08:21.508Z,6.28
2022-11-19T18:10:50.615Z,6.27
2022-11-19T18:13:25.267Z,6.24
2022-11-19T18:15:53.717Z,6.11
2022-11-19T18:18:21.905Z,6.24
2022-11-19T18:20:51.216Z,6.20
2022-11-19T18:23:20.925Z,6.16
2022-11-19T18:25:49.235Z,6.14
2022-11-19T18:28:17.622Z,6.14
2022-11-19T18:30:45.866Z,6.13
2022-11-19T18:33:14.352Z,6.06
2022-11-19T18:35:42.670Z,6.02
2022-11-19T18:38:10.935Z,5.94
2022-11-19T18:40:42.222Z,6.03
2022-11-19T18:43:28.176Z,6.08
2022-11-19T18:45:56.460Z,6.03
2022-11-19T18:48:24.838Z,5.95
2022-11-19T18:50:53.766Z,6.04
2022-11-19T18:53:22.064Z,5.99
2022-11-19T18:55:51.923Z,6.00
2022-11-19T18:58:20.516Z,6.01
2022-11-19T19:00:49.074Z,5.96
2022-11-19T19:03:17.467Z,5.87
2022-11-19T19:05:45.694Z,5.85
2022-11-19T19:08:14.136Z,5.79
2022-11-19T19:10:43.040Z,5.66
2022-11-19T19:13:11.698Z,5.76
2022-11-19T19:15:40.010Z,5.77
2022-11-19T19:18:11.897Z,5.73
2022-11-19T19:20:40.223Z,5.71
2022-11-19T19:23:08.897Z,5.74
2022-11-19T19:25:37.399Z,5.75
2022-11-19T19:28:06.118Z,5.75
2022-11-19T19:30:36.247Z,5.66
2022-11-19T19:33:05.165Z,5.56
2022-11-19T19:35:33.452Z,5.66
2022-11-19T19:38:01.701Z,5.65
2022-11-19T19:40:30.091Z,5.58
2022-11-19T19:43:03.174Z,5.64
2022-11-19T19:45:31.547Z,5.62
2022-11-19T19:48:01.166Z,5.47
2022-11-19T19:50:29.642Z,5.49
2022-11-19T19:52:59.106Z,5.49
2022-11-19T19:55:27.770Z,5.56
2022-11-19T19:57:56.510Z,5.47
2022-11-19T20:00:24.872Z,5.45
2022-11-19T20:02:53.605Z,5.54
2022-11-19T20:05:23.192Z,5.54
2022-11-19T20:07:51.418Z,5.57
2022-11-19T20:10:19.880Z,5.42
2022-11-19T20:13:05.651Z,5.41
2022-11-19T20:15:35.192Z,5.35
2022-11-19T20:18:03.526Z,5.23
2022-11-19T20:20:34.116Z,5.15
2022-11-19T20:23:02.557Z,5.06
2022-11-19T20:25:30.870Z,4.96
2022-11-19T20:27:59.275Z,4.88
2022-11-19T20:30:27.584Z,4.81
2022-11-19T20:32:55.898Z,4.69
2022-11-19T20:35:24.685Z,4.48
2022-11-19T20:38:00.771Z,4.61
2022-11-19T20:40:31.832Z,4.46
2022-11-19T20:43:17.831Z,4.56
2022-11-19T20:45:46.179Z,4.52
2022-11-19T20:48:14.430Z,4.38
2022-11-19T20:50:42.960Z,4.41
2022-11-19T20:53:12.753Z,4.27
2022-11-19T20:56:03.870Z,4.20
2022-11-19T20:58:29.672Z,3.83
2022-11-19T21:01:03.667Z,3.80
2022-11-19T21:03:33.862Z,3.82
2022-11-19T21:06:06.573Z,3.53
2022-11-19T21:08:37.553Z,3.61
2022-11-19T21:11:12.561Z,3.51
2022-11-19T21:13:41.251Z,3.23
2022-11-19T21:16:13.797Z,3.14
2022-11-19T21:18:42.867Z,3.08
2022-11-19T21:21:12.884Z,3.04
2022-11-19T21:23:43.315Z,2.99
2022-11-19T21:26:16.355Z,2.95
2022-11-19T21:28:46.237Z,2.83
2022-11-19T21:31:15.477Z,2.54
2022-11-19T21:33:43.997Z,2.79
2022-11-19T21:36:12.502Z,2.66
2022-11-19T21:38:42.304Z,2.63
2022-11-19T21:41:10.609Z,2.62
2022-11-19T21:43:38.873Z,2.45
2022-11-19T21:46:08.924Z,2.51
2022-11-19T21:48:39.391Z,2.18
2022-11-19T21:51:09.263Z,2.45
2022-11-19T21:53:37.747Z,2.37
2022-11-19T21:56:08.718Z,2.25
2022-11-19T21:58:37.017Z,2.30
2022-11-19T22:01:06.951Z,2.14
2022-11-19T22:03:36.829Z,2.19
2022-11-19T22:06:08.693Z,2.05
2022-11-19T22:08:39.595Z,2.07
2022-11-19T22:11:25.216Z,2.08
2022-11-19T22:13:54.627Z,1.91
2022-11-19T22:16:23.292Z,2.04
2022-11-19T22:18:51.900Z,2.01
2022-11-19T22:21:20.320Z,1.90
2022-11-19T22:23:48.615Z,2.06
2022-11-19T22:26:18.374Z,2.26
2022-11-19T22:28:46.670Z,2.33
2022-11-19T22:31:15.761Z,2.44
2022-11-19T22:33:44.180Z,2.46
2022-11-19T22:36:13.073Z,2.47
2022-11-19T22:38:41.343Z,2.68
2022-11-19T22:41:12.220Z,2.81
2022-11-19T22:43:44.190Z,2.65
2022-11-19T22:46:14.237Z,2.92
2022-11-19T22:48:42.928Z,2.83
2022-11-19T22:51:14.838Z,3.08
2022-11-19T22:53:44.232Z,3.02
2022-11-19T22:56:15.140Z,3.07
2022-11-19T22:58:45.541Z,2.81
2022-11-19T23:01:18.635Z,3.14
2022-11-19T23:03:47.436Z,2.99
2022-11-19T23:06:16.189Z,3.09
2022-11-19T23:08:44.961Z,2.95
2022-11-19T23:11:15.389Z,2.72
2022-11-19T23:13:45.097Z,2.67
2022-11-19T23:16:16.710Z,2.56
2022-11-19T23:18:50.927Z,2.41
2022-11-19T23:21:22.196Z,2.27
2022-11-19T23:23:51.212Z,2.14
2022-11-19T23:26:21.996Z,2.27
2022-11-19T23:28:52.770Z,2.26
2022-11-19T23:31:23.851Z,2.01
2022-11-19T23:33:58.810Z,2.08
2022-11-19T23:36:30.411Z,1.94
2022-11-19T23:38:59.925Z,1.85
2022-11-19T23:41:29.361Z,1.75
2022-11-19T23:43:59.256Z,1.78
2022-11-19T23:46:30.087Z,1.52
2022-11-19T23:49:00.573Z,1.55
2022-11-19T23:51:32.498Z,1.55
2022-11-19T23:54:01.083Z,1.36
2022-11-19T23:56:32.267Z,1.34
2022-11-19T23:59:03.626Z,1.22
